Time;durP1;ratioP1;P1;durP2;ratioP2;P2;SDS_P1;SDS_P2;PMS_P1;PMS_P2;Temp;Humidity;BMP_temperature;BMP_pressure;BME280_temperature;BME280_humidity;BME280_pressure;Samples;Min_cycle;Max_cycle;Signal;HPM_P1;HPM_P2
2023/09/24 00:02:14;;;;;;;;;;;;;;;11.89;93.42;100803.25;109051;276;95484;-55
2023/09/24 00:04:54;;;;;;;;;;;;;;;11.84;93.44;100803.98;108994;276;119199;-53
2023/09/24 00:07:27;;;;;;;;;;;;;;;11.85;93.38;100805.73;109021;277;103902;-53
2023/09/24 00:10:03;;;;;;;;;;;;;;;11.87;93.41;100806.42;109048;276;113911;-55
2023/09/24 00:12:44;;;;;;;;;;;;;;;11.86;93.48;100808.16;109147;276;94826;-52
2023/09/24 00:15:20;;;;;;;;;;;;;;;11.83;93.52;100817.80;108456;276;95864;-56
2023/09/24 00:18:03;;;;;;;;;;;;;;;11.82;93.46;100827.65;107700;277;122227;-57
2023/09/24 00:20:44;;;;;;;;;;;;;;;11.83;93.57;100834.23;107640;276;105650;-58
2023/09/24 00:23:17;;;;;;;;;;;;;;;11.85;93.68;100833.94;107654;277;112906;-56
2023/09/24 00:25:50;;;;;;;;;;;;;;;11.88;93.77;100839.10;107725;276;96610;-57
2023/09/24 00:28:21;;;;;;;;;;;;;;;11.92;94.01;100834.19;107688;276;96412;-55
2023/09/24 00:31:03;;;;;;;;;;;;;;;11.97;93.99;100826.02;108749;277;122206;-52
2023/09/24 00:33:43;;;;;;;;;;;;;;;12.01;94.24;100824.48;109163;276;103937;-55
2023/09/24 00:36:15;;;;;;;;;;;;;;;12.04;94.25;100828.77;107818;277;113930;-53
2023/09/24 00:38:49;;;;;;;;;;;;;;;12.06;94.43;100828.91;107659;276;93684;-53
2023/09/24 00:41:45;;;;;;;;;;;;;;;12.07;94.35;100827.69;109141;276;96538;-53
2023/09/24 00:44:19;;;;;;;;;;;;;;;12.10;94.43;100827.17;109048;276;118491;-55
2023/09/24 00:46:59;;;;;;;;;;;;;;;12.10;94.54;100827.31;107674;276;105623;-56
2023/09/24 00:49:34;;;;;;;;;;;;;;;12.07;94.47;100831.72;107738;277;114135;-55
2023/09/24 00:52:09;;;;;;;;;;;;;;;12.06;94.61;100836.16;107738;276;94712;-54
2023/09/24 00:54:46;;;;;;;;;;;;;;;12.11;94.57;100835.70;107720;276;96267;-57
2023/09/24 00:57:21;;;;;;;;;;;;;;;12.12;94.61;100836.25;107702;276;120891;-57
2023/09/24 00:59:55;;;;;;;;;;;;;;;12.11;94.52;100835.16;107693;276;105438;-56
2023/09/24 01:02:31;;;;;;;;;;;;;;;12.12;94.43;100834.16;107678;276;114708;-54
2023/09/24 01:05:02;;;;;;;;;;;;;;;12.11;94.53;100838.52;107718;277;95443;-57
2023/09/24 01:07:37;;;;;;;;;;;;;;;12.06;94.44;100840.23;107671;277;97075;-56
2023/09/24 01:10:25;;;;;;;;;;;;;;;12.04;94.33;100840.69;108296;276;120281;-54
2023/09/24 01:13:04;;;;;;;;;;;;;;;12.02;94.34;100843.80;109127;276;104376;-56
2023/09/24 01:15:49;;;;;;;;;;;;;;;12.02;94.44;100845.48;108095;276;113232;-57
2023/09/24 01:18:23;;;;;;;;;;;;;;;11.99;94.33;100850.84;107614;277;96462;-56
2023/09/24 01:21:02;;;;;;;;;;;;;;;12.00;94.65;100850.26;107711;276;95371;-53
2023/09/24 01:23:44;;;;;;;;;;;;;;;12.02;94.70;100849.25;107627;276;120375;-54
2023/09/24 01:26:21;;;;;;;;;;;;;;;12.02;94.64;100845.75;107690;276;104850;-57
2023/09/24 01:28:57;;;;;;;;;;;;;;;12.06;94.71;100848.79;107678;276;113729;-57
2023/09/24 01:31:36;;;;;;;;;;;;;;;12.06;94.91;100850.04;107765;276;95737;-54
2023/09/24 01:37:39;;;;;;;;;;;;;;;12.10;94.91;100850.84;109049;277;118988;-54
2023/09/24 01:40:18;;;;;;;;;;;;;;;12.07;94.84;100850.10;108502;276;104215;-54
2023/09/24 01:42:58;;;;;;;;;;;;;;;12.04;94.78;100854.45;107651;277;113444;-54
2023/09/24 01:45:33;;;;;;;;;;;;;;;12.03;94.76;100853.85;107525;277;95114;-57
2023/09/24 01:48:08;;;;;;;;;;;;;;;12.08;95.07;100855.02;107651;277;98479;-57
2023/09/24 01:50:48;;;;;;;;;;;;;;;12.11;95.11;100858.28;107665;277;120411;-56
2023/09/24 01:53:23;;;;;;;;;;;;;;;12.13;95.04;100859.10;107638;277;106128;-55
2023/09/24 01:56:00;;;;;;;;;;;;;;;12.13;95.28;100857.95;107627;277;113477;-57
2023/09/24 01:58:37;;;;;;;;;;;;;;;12.14;95.17;100865.25;107587;276;96310;-58
2023/09/24 02:01:11;;;;;;;;;;;;;;;12.17;95.34;100875.54;107681;276;96821;-53
2023/09/24 02:03:46;;;;;;;;;;;;;;;12.19;95.28;100876.35;107622;277;120521;-54
2023/09/24 02:06:22;;;;;;;;;;;;;;;12.17;95.24;100876.23;107694;277;105410;-54
2023/09/24 02:08:55;;;;;;;;;;;;;;;12.15;95.01;100875.42;107656;276;115181;-52
2023/09/24 02:11:32;;;;;;;;;;;;;;;12.11;95.07;100874.42;107658;276;95177;-54
2023/09/24 02:14:05;;;;;;;;;;;;;;;12.10;95.26;100870.10;107652;277;97767;-55
2023/09/24 02:16:42;;;;;;;;;;;;;;;12.12;95.16;100870.79;107665;276;120698;-54
2023/09/24 02:19:28;;;;;;;;;;;;;;;12.12;95.14;100873.39;107636;277;105509;-58
2023/09/24 02:21:59;;;;;;;;;;;;;;;12.11;95.16;100875.73;109132;277;113153;-57
2023/09/24 02:24:42;;;;;;;;;;;;;;;12.08;95.20;100875.38;108789;276;96616;-57
2023/09/24 02:27:18;;;;;;;;;;;;;;;12.08;95.33;100879.73;107516;277;97183;-57
2023/09/24 02:29:58;;;;;;;;;;;;;;;12.13;95.54;100885.06;107738;277;119818;-56
2023/09/24 02:32:36;;;;;;;;;;;;;;;12.15;95.35;100890.83;107671;277;106028;-56
2023/09/24 02:35:13;;;;;;;;;;;;;;;12.15;95.63;100901.45;107664;276;113857;-57
2023/09/24 02:37:47;;;;;;;;;;;;;;;12.16;95.54;100909.94;107625;276;96616;-58
2023/09/24 02:40:27;;;;;;;;;;;;;;;12.19;95.68;100911.30;108346;276;97770;-58
2023/09/24 02:43:05;;;;;;;;;;;;;;;12.20;95.58;100919.06;109166;277;120431;-56
2023/09/24 02:45:48;;;;;;;;;;;;;;;12.24;95.58;100922.55;108166;277;105030;-56
2023/09/24 02:48:26;;;;;;;;;;;;;;;12.26;95.67;100926.39;107629;277;113502;-57
2023/09/24 02:51:08;;;;;;;;;;;;;;;12.28;95.50;100923.45;107645;277;97068;-55
2023/09/24 02:53:42;;;;;;;;;;;;;;;12.27;95.60;100921.27;107694;276;95199;-53
2023/09/24 02:56:17;;;;;;;;;;;;;;;12.26;95.51;100920.75;107693;276;121130;-55
2023/09/24 02:58:54;;;;;;;;;;;;;;;12.25;95.32;100925.61;107621;276;104353;-56
2023/09/24 03:01:30;;;;;;;;;;;;;;;12.22;95.31;100927.65;107704;276;114796;-56
2023/09/24 03:04:08;;;;;;;;;;;;;;;12.14;95.34;100938.53;107689;276;96747;-55
2023/09/24 03:06:42;;;;;;;;;;;;;;;12.10;95.30;100943.36;107740;277;96959;-56
2023/09/24 03:09:16;;;;;;;;;;;;;;;12.13;95.51;100946.48;107747;277;120736;-56
2023/09/24 03:11:52;;;;;;;;;;;;;;;12.15;95.48;100942.59;107734;277;104351;-57
2023/09/24 03:14:41;;;;;;;;;;;;;;;12.14;95.54;100943.83;107863;276;113984;-58
2023/09/24 03:17:13;;;;;;;;;;;;;;;12.14;95.51;100943.62;109117;276;94715;-56
2023/09/24 03:19:50;;;;;;;;;;;;;;;12.11;95.53;100953.61;108677;276;96849;-54
2023/09/24 03:22:24;;;;;;;;;;;;;;;12.12;95.70;100958.01;107657;276;121519;-54
2023/09/24 03:25:00;;;;;;;;;;;;;;;12.12;95.66;100960.16;107659;273;105793;-54
2023/09/24 03:27:39;;;;;;;;;;;;;;;12.11;95.56;100966.88;107566;276;115591;-53
2023/09/24 03:30:14;;;;;;;;;;;;;;;12.13;95.64;100970.23;107558;277;96069;-54
2023/09/24 03:32:51;;;;;;;;;;;;;;;12.17;95.74;100977.91;107580;277;97058;-54
2023/09/24 03:35:24;;;;;;;;;;;;;;;12.17;95.70;100986.20;107588;277;120620;-53
2023/09/24 03:37:57;;;;;;;;;;;;;;;12.15;95.70;100991.75;107543;277;105724;-55
2023/09/24 03:40:40;;;;;;;;;;;;;;;12.14;95.82;100998.92;107597;277;113332;-55
2023/09/24 03:43:20;;;;;;;;;;;;;;;12.12;95.77;101005.68;107580;277;95667;-53
2023/09/24 03:45:58;;;;;;;;;;;;;;;12.10;95.77;101002.13;107760;277;97864;-55
2023/09/24 03:48:37;;;;;;;;;;;;;;;12.12;95.88;100997.00;107623;277;120697;-56
2023/09/24 03:51:14;;;;;;;;;;;;;;;12.14;95.81;100995.66;107620;277;105704;-53
2023/09/24 03:53:50;;;;;;;;;;;;;;;12.09;95.77;100998.25;107616;277;114607;-55
2023/09/24 03:56:24;;;;;;;;;;;;;;;12.10;95.83;101002.67;107575;277;96558;-56
2023/09/24 03:58:58;;;;;;;;;;;;;;;12.08;95.87;101001.94;107030;277;754236;-58
2023/09/24 04:01:31;;;;;;;;;;;;;;;12.09;95.80;101004.72;107542;277;119440;-55
2023/09/24 04:04:04;;;;;;;;;;;;;;;12.08;95.80;101004.20;107595;277;106038;-55
2023/09/24 04:06:39;;;;;;;;;;;;;;;12.08;95.86;101006.08;107540;277;113864;-57
2023/09/24 04:09:32;;;;;;;;;;;;;;;12.10;96.00;101011.60;107570;277;96108;-57
2023/09/24 04:12:13;;;;;;;;;;;;;;;12.11;96.06;101012.28;109148;277;95105;-59
2023/09/24 04:15:06;;;;;;;;;;;;;;;12.10;95.94;101017.23;108430;277;119858;-55
2023/09/24 04:18:03;;;;;;;;;;;;;;;12.12;95.99;101020.22;107514;277;105353;-55
2023/09/24 04:20:52;;;;;;;;;;;;;;;12.13;95.99;101020.73;107517;277;114301;-55
2023/09/24 04:23:27;;;;;;;;;;;;;;;12.12;95.93;101024.55;107489;277;96735;-54
2023/09/24 04:25:59;;;;;;;;;;;;;;;12.11;95.80;101026.11;107608;277;98239;-55
2023/09/24 04:28:36;;;;;;;;;;;;;;;12.13;95.93;101031.90;107511;277;120865;-56
2023/09/24 04:31:07;;;;;;;;;;;;;;;12.12;95.84;101032.14;107573;277;105439;-55
2023/09/24 04:33:41;;;;;;;;;;;;;;;12.09;95.86;101038.83;107490;277;114678;-57
2023/09/24 04:36:18;;;;;;;;;;;;;;;12.08;96.07;101045.06;107538;277;97522;-57
2023/09/24 04:39:00;;;;;;;;;;;;;;;12.10;95.89;101041.77;107463;277;98323;-57
2023/09/24 04:41:37;;;;;;;;;;;;;;;12.09;96.03;101038.83;107879;277;118146;-54
2023/09/24 04:44:13;;;;;;;;;;;;;;;12.09;96.05;101039.70;107566;277;105526;-56
2023/09/24 04:46:48;;;;;;;;;;;;;;;12.11;96.03;101047.76;107445;277;113245;-56
2023/09/24 04:49:30;;;;;;;;;;;;;;;12.12;95.83;101048.09;107626;277;96620;-58
2023/09/24 04:52:08;;;;;;;;;;;;;;;12.10;95.90;101051.89;107526;277;97258;-57
2023/09/24 04:54:39;;;;;;;;;;;;;;;12.10;95.93;101051.35;107488;277;119720;-57
2023/09/24 04:57:17;;;;;;;;;;;;;;;12.13;96.06;101051.57;107491;277;105143;-57
2023/09/24 05:00:01;;;;;;;;;;;;;;;12.13;95.78;101050.85;107962;277;114546;-58
2023/09/24 05:02:35;;;;;;;;;;;;;;;12.11;95.73;101049.63;109093;277;95363;-58
2023/09/24 05:05:12;;;;;;;;;;;;;;;12.09;95.70;101048.37;108417;277;97015;-54
2023/09/24 05:07:43;;;;;;;;;;;;;;;12.04;95.67;101051.14;107545;277;120484;-55
2023/09/24 05:10:20;;;;;;;;;;;;;;;12.05;95.63;101054.38;107529;277;104879;-57
2023/09/24 05:12:57;;;;;;;;;;;;;;;12.04;95.62;101063.29;107464;277;113053;-56
2023/09/24 05:15:32;;;;;;;;;;;;;;;12.07;95.74;101071.05;107573;277;96854;-53
2023/09/24 05:18:04;;;;;;;;;;;;;;;12.12;95.98;101077.33;107509;277;98193;-54
2023/09/24 05:20:52;;;;;;;;;;;;;;;12.20;96.03;101086.64;108404;277;120369;-59
2023/09/24 05:23:27;;;;;;;;;;;;;;;12.25;96.15;101092.35;108841;277;104964;-59
2023/09/24 05:26:02;;;;;;;;;;;;;;;12.30;96.04;101089.35;107864;277;112758;-55
2023/09/24 05:28:33;;;;;;;;;;;;;;;12.35;96.00;101090.86;107530;277;95742;-58
2023/09/24 05:31:16;;;;;;;;;;;;;;;12.38;95.80;101094.02;107659;277;96419;-58
2023/09/24 05:33:48;;;;;;;;;;;;;;;12.42;95.94;101095.71;108619;277;118003;-54
2023/09/24 05:36:24;;;;;;;;;;;;;;;12.46;96.11;101097.64;107596;277;104464;-57
2023/09/24 05:38:57;;;;;;;;;;;;;;;12.51;95.96;101110.70;107581;277;115761;-56
2023/09/24 05:41:32;;;;;;;;;;;;;;;12.61;96.01;101118.77;107582;277;96941;-54
2023/09/24 05:44:06;;;;;;;;;;;;;;;12.67;95.98;101128.05;107596;277;97624;-54
2023/09/24 05:46:42;;;;;;;;;;;;;;;12.69;96.04;101130.61;107607;277;120276;-55
2023/09/24 05:49:19;;;;;;;;;;;;;;;12.74;96.29;101133.16;107682;277;105920;-57
2023/09/24 05:51:55;;;;;;;;;;;;;;;12.76;96.15;101132.53;108734;277;111862;-58
2023/09/24 05:54:31;;;;;;;;;;;;;;;12.76;95.97;101126.48;108755;277;94791;-57
2023/09/24 05:57:03;;;;;;;;;;;;;;;12.88;96.08;101123.83;107612;277;96802;-57
2023/09/24 05:59:51;;;;;;;;;;;;;;;13.01;96.03;101127.30;107893;277;119585;-59
2023/09/24 06:02:37;;;;;;;;;;;;;;;13.11;95.88;101122.83;109029;277;103548;-58
2023/09/24 06:05:13;;;;;;;;;;;;;;;13.25;96.16;101127.32;109027;277;113454;-59
2023/09/24 06:07:54;;;;;;;;;;;;;;;13.34;95.90;101130.66;108770;277;94215;-59
2023/09/24 06:10:27;;;;;;;;;;;;;;;13.52;95.95;101141.20;108131;277;96055;-57
2023/09/24 06:13:01;;;;;;;;;;;;;;;13.71;96.14;101150.52;107599;277;120206;-56
2023/09/24 06:15:35;;;;;;;;;;;;;;;13.87;96.11;101157.98;108313;277;104871;-58
2023/09/24 06:18:16;;;;;;;;;;;;;;;13.98;96.00;101164.00;108863;277;112814;-59
2023/09/24 06:20:49;;;;;;;;;;;;;;;14.11;95.92;101167.57;107918;277;94526;-56
2023/09/24 06:23:24;;;;;;;;;;;;;;;14.27;95.77;101174.16;107483;277;97146;-55
2023/09/24 06:26:04;;;;;;;;;;;;;;;14.38;95.55;101170.95;107543;277;120944;-54
2023/09/24 06:28:38;;;;;;;;;;;;;;;14.52;95.29;101167.95;107574;277;105907;-54
2023/09/24 06:31:09;;;;;;;;;;;;;;;14.72;95.16;101173.88;107561;277;115726;-57
2023/09/24 06:33:40;;;;;;;;;;;;;;;14.87;94.93;101182.28;107627;277;97221;-58
2023/09/24 06:36:13;;;;;;;;;;;;;;;15.00;94.51;101182.20;107617;277;96570;-54
2023/09/24 06:38:54;;;;;;;;;;;;;;;15.16;94.39;101185.98;107576;277;120505;-54
2023/09/24 06:41:24;;;;;;;;;;;;;;;15.30;94.11;101190.81;107640;277;104992;-58
2023/09/24 06:43:56;;;;;;;;;;;;;;;15.46;93.62;101194.73;107603;277;114524;-57
2023/09/24 06:46:32;;;;;;;;;;;;;;;15.57;93.70;101207.41;108739;277;94974;-59
2023/09/24 06:49:08;;;;;;;;;;;;;;;15.73;93.48;101207.81;108841;277;95378;-59
2023/09/24 06:51:51;;;;;;;;;;;;;;;15.95;93.21;101209.23;108714;277;120703;-59
2023/09/24 06:54:33;;;;;;;;;;;;;;;16.22;92.78;101210.79;107543;277;105966;-59
2023/09/24 06:57:12;;;;;;;;;;;;;;;16.45;92.43;101211.13;108163;277;113475;-59
2023/09/24 06:59:44;;;;;;;;;;;;;;;16.58;91.64;101206.42;108291;277;93292;-54
2023/09/24 07:02:17;;;;;;;;;;;;;;;16.57;91.44;101211.34;107550;277;97201;-54
2023/09/24 07:04:53;;;;;;;;;;;;;;;16.65;90.50;101214.95;107880;277;121772;-59
2023/09/24 07:07:32;;;;;;;;;;;;;;;16.53;89.88;101223.27;108507;277;105184;-59
2023/09/24 07:10:10;;;;;;;;;;;;;;;16.50;89.51;101220.98;108099;277;115031;-58
2023/09/24 07:12:47;;;;;;;;;;;;;;;16.56;89.60;101220.73;107585;277;96920;-58
2023/09/24 07:15:22;;;;;;;;;;;;;;;16.60;89.15;101221.42;108120;277;97230;-59
2023/09/24 07:18:00;;;;;;;;;;;;;;;16.67;88.90;101228.97;108280;277;119965;-60
2023/09/24 07:20:39;;;;;;;;;;;;;;;16.83;88.88;101230.94;108495;277;103193;-59
2023/09/24 07:23:14;;;;;;;;;;;;;;;16.84;88.52;101230.15;108563;277;114188;-59
2023/09/24 07:25:48;;;;;;;;;;;;;;;16.84;88.48;101231.20;107936;277;93187;-59
2023/09/24 07:28:25;;;;;;;;;;;;;;;16.95;88.16;101232.09;107563;277;97414;-58
2023/09/24 07:31:02;;;;;;;;;;;;;;;17.02;87.67;101232.29;107559;277;120243;-56
2023/09/24 07:33:36;;;;;;;;;;;;;;;17.13;87.38;101227.91;107579;277;105964;-62
2023/09/24 07:36:14;;;;;;;;;;;;;;;17.30;86.93;101225.91;107595;277;113218;-61
2023/09/24 07:38:55;;;;;;;;;;;;;;;17.53;86.85;101229.14;108359;277;94784;-59
2023/09/24 07:41:28;;;;;;;;;;;;;;;17.75;86.34;101236.79;107653;277;96307;-56
2023/09/24 07:44:01;;;;;;;;;;;;;;;18.10;85.87;101239.46;107577;277;119908;-55
2023/09/24 07:46:35;;;;;;;;;;;;;;;18.20;85.50;101239.61;107513;277;104058;-57
2023/09/24 07:49:15;;;;;;;;;;;;;;;18.41;85.15;101240.80;107584;277;114890;-60
2023/09/24 07:51:51;;;;;;;;;;;;;;;18.29;84.56;101242.89;108325;277;94346;-58
2023/09/24 07:54:28;;;;;;;;;;;;;;;18.21;84.47;101246.80;108390;277;95660;-58
2023/09/24 07:57:02;;;;;;;;;;;;;;;18.42;84.42;101253.81;108598;277;122014;-60
2023/09/24 07:59:33;;;;;;;;;;;;;;;18.85;83.83;101253.41;108453;277;104267;-55
2023/09/24 08:02:10;;;;;;;;;;;;;;;19.27;83.33;101247.89;107555;277;114862;-56
2023/09/24 08:04:45;;;;;;;;;;;;;;;19.78;82.63;101250.66;107787;277;96672;-59
2023/09/24 08:07:26;;;;;;;;;;;;;;;19.94;81.41;101253.88;108576;277;96800;-59
2023/09/24 08:10:03;;;;;;;;;;;;;;;20.08;80.82;101252.58;108593;277;120376;-60
2023/09/24 08:12:41;;;;;;;;;;;;;;;20.48;80.47;101254.95;108416;277;105265;-59
2023/09/24 08:15:17;;;;;;;;;;;;;;;20.42;79.05;101257.84;107946;277;113074;-57
2023/09/24 08:17:47;;;;;;;;;;;;;;;20.05;78.12;101261.56;107537;277;95076;-58
2023/09/24 08:20:18;;;;;;;;;;;;;;;19.78;77.91;101262.39;107569;277;98281;-57
2023/09/24 08:22:53;;;;;;;;;;;;;;;19.47;77.88;101265.09;107561;277;120798;-55
2023/09/24 08:25:26;;;;;;;;;;;;;;;19.22;77.82;101269.56;107568;277;105062;-57
2023/09/24 08:28:06;;;;;;;;;;;;;;;19.26;77.84;101269.95;107484;277;114172;-58
2023/09/24 08:30:44;;;;;;;;;;;;;;;19.01;77.64;101269.00;107543;277;94473;-57
2023/09/24 08:33:17;;;;;;;;;;;;;;;18.93;77.46;101269.38;107518;277;96605;-57
2023/09/24 08:35:54;;;;;;;;;;;;;;;18.85;77.36;101270.71;107553;277;120471;-55
2023/09/24 08:38:36;;;;;;;;;;;;;;;18.75;76.89;101279.52;107530;277;106509;-60
2023/09/24 08:41:14;;;;;;;;;;;;;;;18.75;77.24;101279.52;107705;277;113896;-60
2023/09/24 08:43:49;;;;;;;;;;;;;;;18.73;77.45;101285.83;108117;277;93880;-60
2023/09/24 08:46:23;;;;;;;;;;;;;;;18.78;77.35;101285.05;107648;277;96455;-56
2023/09/24 08:49:04;;;;;;;;;;;;;;;18.71;77.23;101292.72;107464;277;119082;-56
2023/09/24 08:51:48;;;;;;;;;;;;;;;18.81;77.39;101290.92;107614;277;104436;-56
2023/09/24 08:54:22;;;;;;;;;;;;;;;18.89;77.18;101290.73;107629;277;114438;-57
2023/09/24 08:56:52;;;;;;;;;;;;;;;19.09;77.10;101284.55;107519;277;93332;-57
2023/09/24 08:59:26;;;;;;;;;;;;;;;18.98;76.82;101287.98;107545;277;97801;-55
2023/09/24 09:01:59;;;;;;;;;;;;;;;18.94;76.38;101297.18;107565;277;120844;-55
2023/09/24 09:04:46;;;;;;;;;;;;;;;18.87;76.29;101304.56;107544;277;105863;-58
2023/09/24 09:07:17;;;;;;;;;;;;;;;18.92;76.00;101303.14;107468;277;115252;-56
2023/09/24 09:09:59;;;;;;;;;;;;;;;18.97;76.03;101299.42;107482;277;95374;-56
2023/09/24 09:12:33;;;;;;;;;;;;;;;19.08;75.98;101294.13;107523;277;97092;-57
2023/09/24 09:15:15;;;;;;;;;;;;;;;19.13;75.42;101294.55;107505;277;120559;-54
2023/09/24 09:17:45;;;;;;;;;;;;;;;19.16;75.17;101292.84;107533;277;104867;-57
2023/09/24 09:20:16;;;;;;;;;;;;;;;19.22;74.95;101292.11;107527;277;114562;-55
2023/09/24 09:22:53;;;;;;;;;;;;;;;19.28;74.89;101295.04;107592;277;93936;-55
2023/09/24 09:25:25;;;;;;;;;;;;;;;19.32;74.80;101299.14;107567;277;96274;-56
2023/09/24 09:28:04;;;;;;;;;;;;;;;19.35;74.34;101302.53;107595;277;119412;-55
2023/09/24 09:30:44;;;;;;;;;;;;;;;19.53;74.34;101302.89;107536;277;106227;-55
2023/09/24 09:33:25;;;;;;;;;;;;;;;19.79;73.93;101304.70;107668;277;112840;-54
2023/09/24 09:36:00;;;;;;;;;;;;;;;19.75;72.89;101303.05;108416;277;94113;-60
2023/09/24 09:38:36;;;;;;;;;;;;;;;19.79;72.81;101309.27;108669;277;95629;-60
2023/09/24 09:41:10;;;;;;;;;;;;;;;20.06;72.54;101315.01;107573;277;120605;-59
2023/09/24 09:43:45;;;;;;;;;;;;;;;20.13;71.87;101316.53;107618;277;105676;-58
2023/09/24 09:46:19;;;;;;;;;;;;;;;20.03;71.59;101315.27;107630;277;114430;-60
2023/09/24 09:48:58;;;;;;;;;;;;;;;20.10;71.28;101319.19;107762;277;94183;-61
2023/09/24 09:51:38;;;;;;;;;;;;;;;19.97;71.01;101326.55;107506;277;96751;-56
2023/09/24 09:54:15;;;;;;;;;;;;;;;19.84;71.40;101326.63;107595;277;120756;-55
2023/09/24 09:56:57;;;;;;;;;;;;;;;19.76;71.15;101334.46;107699;277;104309;-59
2023/09/24 09:59:33;;;;;;;;;;;;;;;19.58;71.03;101336.45;107661;277;114692;-59
2023/09/24 10:02:08;;;;;;;;;;;;;;;19.58;70.84;101341.64;107579;277;95005;-58
2023/09/24 10:04:44;;;;;;;;;;;;;;;19.51;70.74;101348.59;107630;277;97498;-58
2023/09/24 10:07:16;;;;;;;;;;;;;;;19.51;70.66;101346.65;107776;277;120394;-60
2023/09/24 10:09:56;;;;;;;;;;;;;;;19.51;70.55;101341.20;107855;277;103019;-59
2023/09/24 10:12:37;;;;;;;;;;;;;;;19.54;70.38;101342.66;107602;277;113334;-57
2023/09/24 10:15:30;;;;;;;;;;;;;;;19.58;70.40;101345.11;107620;277;94353;-56
2023/09/24 10:18:25;;;;;;;;;;;;;;;19.75;70.73;101338.98;107664;277;96356;-59
2023/09/24 10:21:08;;;;;;;;;;;;;;;19.95;70.79;101338.56;108084;277;120897;-59
2023/09/24 10:23:46;;;;;;;;;;;;;;;20.09;70.34;101336.92;107829;277;103079;-61
2023/09/24 10:26:48;;;;;;;;;;;;;;;20.18;69.90;101341.38;107555;277;114966;-60
2023/09/24 10:29:46;;;;;;;;;;;;;;;20.20;69.77;101342.02;107572;277;94381;-60
2023/09/24 10:32:21;;;;;;;;;;;;;;;20.23;69.30;101352.80;107598;277;97305;-61
2023/09/24 10:35:11;;;;;;;;;;;;;;;20.30;68.94;101354.61;107565;277;121191;-62
2023/09/24 10:38:04;;;;;;;;;;;;;;;20.23;68.49;101361.46;107585;277;105254;-62
2023/09/24 10:40:56;;;;;;;;;;;;;;;20.27;68.24;101366.86;107583;277;115049;-58
2023/09/24 10:43:32;;;;;;;;;;;;;;;20.18;68.22;101367.05;107537;277;93687;-58
2023/09/24 10:46:30;;;;;;;;;;;;;;;20.11;67.97;101364.97;107654;277;97325;-57
2023/09/24 10:49:10;;;;;;;;;;;;;;;20.22;68.00;101365.69;107492;277;121204;-57
2023/09/24 10:51:44;;;;;;;;;;;;;;;20.29;67.90;101366.23;107576;277;104617;-55
2023/09/24 10:54:19;;;;;;;;;;;;;;;20.17;67.80;101367.86;107557;277;114120;-54
2023/09/24 10:56:52;;;;;;;;;;;;;;;19.99;66.94;101365.61;107508;277;95034;-55
2023/09/24 10:59:33;;;;;;;;;;;;;;;19.94;66.93;101355.78;107665;277;97112;-56
2023/09/24 11:02:19;;;;;;;;;;;;;;;19.92;66.35;101349.20;107618;277;121256;-57
2023/09/24 11:04:51;;;;;;;;;;;;;;;19.79;65.56;101354.77;107645;277;105861;-59
2023/09/24 11:07:23;;;;;;;;;;;;;;;19.79;65.96;101357.00;107657;277;113444;-58
2023/09/24 11:10:19;;;;;;;;;;;;;;;19.72;65.69;101359.27;108167;277;92328;-58
2023/09/24 11:12:55;;;;;;;;;;;;;;;19.67;65.90;101364.46;109210;277;96462;-58
2023/09/24 11:15:32;;;;;;;;;;;;;;;19.60;65.70;101361.99;108189;277;119588;-57
2023/09/24 11:18:07;;;;;;;;;;;;;;;19.84;66.38;101355.04;107638;277;104738;-56
2023/09/24 11:20:49;;;;;;;;;;;;;;;20.10;66.15;101346.95;107596;277;114952;-57
2023/09/24 11:23:22;;;;;;;;;;;;;;;20.31;65.94;101344.25;107569;277;94799;-59
2023/09/24 11:25:58;;;;;;;;;;;;;;;20.34;65.46;101348.09;107584;277;95818;-57
2023/09/24 11:28:37;;;;;;;;;;;;;;;20.32;65.17;101350.48;107516;277;121962;-58
2023/09/24 11:31:29;;;;;;;;;;;;;;;20.30;64.68;101347.42;108970;277;105269;-55
2023/09/24 11:34:12;;;;;;;;;;;;;;;20.34;64.71;101346.83;109243;277;112525;-56
2023/09/24 11:36:55;;;;;;;;;;;;;;;20.35;64.68;101348.84;107594;277;94023;-59
2023/09/24 11:39:52;;;;;;;;;;;;;;;20.43;64.78;101344.67;107790;277;97584;-56
2023/09/24 11:42:31;;;;;;;;;;;;;;;20.58;64.61;101347.86;109274;277;119621;-56
2023/09/24 11:45:11;;;;;;;;;;;;;;;20.70;64.44;101349.10;109256;277;104537;-60
2023/09/24 11:47:49;;;;;;;;;;;;;;;20.72;63.68;101349.15;109272;277;113455;-58
2023/09/24 11:50:28;;;;;;;;;;;;;;;20.61;63.60;101345.24;108380;277;94232;-58
2023/09/24 11:53:05;;;;;;;;;;;;;;;20.48;63.74;101339.17;107606;277;96890;-57
2023/09/24 11:55:41;;;;;;;;;;;;;;;20.48;63.80;101338.58;107561;277;119752;-56
2023/09/24 11:58:14;;;;;;;;;;;;;;;20.38;64.07;101342.84;107011;277;691766;-57
2023/09/24 12:00:45;;;;;;;;;;;;;;;20.33;63.66;101348.48;107618;277;114089;-55
2023/09/24 12:03:16;;;;;;;;;;;;;;;20.23;63.67;101350.49;107613;277;94672;-55
2023/09/24 12:06:08;;;;;;;;;;;;;;;20.23;63.80;101351.62;108708;277;97334;-57
2023/09/24 12:08:53;;;;;;;;;;;;;;;20.29;63.93;101353.77;109230;277;118274;-59
2023/09/24 12:11:30;;;;;;;;;;;;;;;20.40;63.77;101357.05;107574;277;104886;-54
2023/09/24 12:14:00;;;;;;;;;;;;;;;20.45;63.59;101351.11;107596;277;115147;-56
2023/09/24 12:16:42;;;;;;;;;;;;;;;20.46;63.22;101351.95;109203;277;92861;-58
2023/09/24 12:19:15;;;;;;;;;;;;;;;20.33;62.88;101357.55;108878;277;98373;-57
2023/09/24 12:21:49;;;;;;;;;;;;;;;20.28;62.61;101358.13;107519;277;120944;-59
2023/09/24 12:24:30;;;;;;;;;;;;;;;20.39;62.66;101353.95;107574;277;106058;-58
2023/09/24 12:27:03;;;;;;;;;;;;;;;20.40;62.36;101356.98;107560;277;115009;-58
2023/09/24 12:29:42;;;;;;;;;;;;;;;20.35;62.01;101354.50;108815;277;94474;-59
2023/09/24 12:32:18;;;;;;;;;;;;;;;20.25;61.97;101349.33;108217;277;96210;-59
2023/09/24 12:34:55;;;;;;;;;;;;;;;20.25;62.03;101350.05;107552;277;119020;-56
2023/09/24 12:37:29;;;;;;;;;;;;;;;20.24;61.59;101351.08;107569;277;106333;-57
2023/09/24 12:40:07;;;;;;;;;;;;;;;20.24;61.59;101345.70;107574;277;113546;-58
2023/09/24 12:42:43;;;;;;;;;;;;;;;20.33;61.33;101346.41;107510;277;93262;-59
2023/09/24 12:45:21;;;;;;;;;;;;;;;20.38;61.33;101346.05;107577;277;96697;-58
2023/09/24 12:47:52;;;;;;;;;;;;;;;20.38;61.42;101348.25;107542;277;119504;-58
2023/09/24 12:50:25;;;;;;;;;;;;;;;20.32;61.61;101348.63;107562;277;103835;-57
2023/09/24 12:53:00;;;;;;;;;;;;;;;20.34;61.66;101349.41;107520;277;114784;-57
2023/09/24 12:55:35;;;;;;;;;;;;;;;20.42;61.66;101346.72;107544;277;93201;-58
2023/09/24 12:58:10;;;;;;;;;;;;;;;20.56;61.52;101346.65;107534;277;95819;-59
2023/09/24 13:00:45;;;;;;;;;;;;;;;20.63;60.76;101346.11;107558;277;119212;-58
2023/09/24 13:03:19;;;;;;;;;;;;;;;20.70;60.66;101349.60;107519;277;103430;-58
2023/09/24 13:05:55;;;;;;;;;;;;;;;20.59;60.29;101344.64;107533;277;116638;-57
2023/09/24 13:08:29;;;;;;;;;;;;;;;20.45;60.06;101339.51;107453;277;93574;-56
2023/09/24 13:11:02;;;;;;;;;;;;;;;20.48;59.90;101342.94;107552;277;96057;-58
2023/09/24 13:13:34;;;;;;;;;;;;;;;20.41;59.90;101346.83;107477;277;122075;-59
2023/09/24 13:16:08;;;;;;;;;;;;;;;20.37;59.78;101349.15;107559;277;104584;-58
2023/09/24 13:18:44;;;;;;;;;;;;;;;20.35;59.97;101345.50;107448;277;114673;-58
2023/09/24 13:21:16;;;;;;;;;;;;;;;20.31;59.91;101347.39;107485;277;92577;-56
2023/09/24 13:23:46;;;;;;;;;;;;;;;20.25;59.75;101350.40;107494;277;97846;-59
2023/09/24 13:26:19;;;;;;;;;;;;;;;20.16;59.14;101344.55;107568;277;119962;-56